sensor_id;sensor_type;location;lat;lon;timestamp;temperature;humidity
62583;DHT22;48641;51.676;5.808;2023-06-26T00:01:32;28.20;53.40
62583;DHT22;48641;51.676;5.808;2023-06-26T00:03:58;28.20;53.40
62583;DHT22;48641;51.676;5.808;2023-06-26T00:06:27;28.20;53.30
62583;DHT22;48641;51.676;5.808;2023-06-26T00:08:53;28.20;53.30
62583;DHT22;48641;51.676;5.808;2023-06-26T00:11:20;28.20;53.30
62583;DHT22;48641;51.676;5.808;2023-06-26T00:13:45;28.10;53.60
62583;DHT22;48641;51.676;5.808;2023-06-26T00:16:11;28.10;53.50
62583;DHT22;48641;51.676;5.808;2023-06-26T00:18:36;28.10;53.50
62583;DHT22;48641;51.676;5.808;2023-06-26T00:21:02;28.10;53.40
62583;DHT22;48641;51.676;5.808;2023-06-26T00:23:30;28.10;53.40
62583;DHT22;48641;51.676;5.808;2023-06-26T00:25:57;28.10;53.40
62583;DHT22;48641;51.676;5.808;2023-06-26T00:28:23;28.10;53.50
62583;DHT22;48641;51.676;5.808;2023-06-26T00:30:48;28.10;53.50
62583;DHT22;48641;51.676;5.808;2023-06-26T00:33:14;28.10;53.40
62583;DHT22;48641;51.676;5.808;2023-06-26T00:35:40;28.10;53.40
62583;DHT22;48641;51.676;5.808;2023-06-26T00:38:06;28.10;53.40
62583;DHT22;48641;51.676;5.808;2023-06-26T00:40:32;28.10;53.40
62583;DHT22;48641;51.676;5.808;2023-06-26T00:42:57;28.10;53.30
62583;DHT22;48641;51.676;5.808;2023-06-26T00:45:23;28.10;53.30
62583;DHT22;48641;51.676;5.808;2023-06-26T00:47:48;28.10;53.30
62583;DHT22;48641;51.676;5.808;2023-06-26T00:50:14;28.10;53.20
62583;DHT22;48641;51.676;5.808;2023-06-26T00:52:41;28.10;53.30
62583;DHT22;48641;51.676;5.808;2023-06-26T00:55:07;28.10;53.30
62583;DHT22;48641;51.676;5.808;2023-06-26T00:57:33;28.10;53.30
62583;DHT22;48641;51.676;5.808;2023-06-26T01:00:00;28.00;53.30
62583;DHT22;48641;51.676;5.808;2023-06-26T01:02:26;28.10;53.40
62583;DHT22;48641;51.676;5.808;2023-06-26T01:05:00;28.00;53.20
62583;DHT22;48641;51.676;5.808;2023-06-26T01:07:29;28.10;53.40
62583;DHT22;48641;51.676;5.808;2023-06-26T01:09:55;28.10;53.30
62583;DHT22;48641;51.676;5.808;2023-06-26T01:12:21;28.10;53.30
62583;DHT22;48641;51.676;5.808;2023-06-26T01:14:46;28.10;53.20
62583;DHT22;48641;51.676;5.808;2023-06-26T01:17:12;28.10;53.20
62583;DHT22;48641;51.676;5.808;2023-06-26T01:19:41;28.10;53.30
62583;DHT22;48641;51.676;5.808;2023-06-26T01:22:56;28.10;53.20
62583;DHT22;48641;51.676;5.808;2023-06-26T01:25:13;28.10;53.20
62583;DHT22;48641;51.676;5.808;2023-06-26T01:27:45;28.00;53.30
62583;DHT22;48641;51.676;5.808;2023-06-26T01:30:12;28.00;53.30
62583;DHT22;48641;51.676;5.808;2023-06-26T01:32:39;28.00;53.40
62583;DHT22;48641;51.676;5.808;2023-06-26T01:35:06;28.00;53.30
62583;DHT22;48641;51.676;5.808;2023-06-26T01:37:32;28.00;53.20
62583;DHT22;48641;51.676;5.808;2023-06-26T01:39:58;28.00;53.20
62583;DHT22;48641;51.676;5.808;2023-06-26T01:42:23;28.00;53.20
62583;DHT22;48641;51.676;5.808;2023-06-26T01:44:50;28.00;53.20
62583;DHT22;48641;51.676;5.808;2023-06-26T01:47:22;28.00;53.30
62583;DHT22;48641;51.676;5.808;2023-06-26T01:50:02;28.00;53.20
62583;DHT22;48641;51.676;5.808;2023-06-26T01:52:58;28.00;53.20
62583;DHT22;48641;51.676;5.808;2023-06-26T01:58:02;28.00;53.20
62583;DHT22;48641;51.676;5.808;2023-06-26T02:00:28;27.90;53.10
62583;DHT22;48641;51.676;5.808;2023-06-26T02:02:54;27.90;53.10
62583;DHT22;48641;51.676;5.808;2023-06-26T02:05:20;28.00;53.10
62583;DHT22;48641;51.676;5.808;2023-06-26T02:07:45;28.00;53.10
62583;DHT22;48641;51.676;5.808;2023-06-26T02:10:11;27.90;52.90
62583;DHT22;48641;51.676;5.808;2023-06-26T02:12:37;28.00;53.00
62583;DHT22;48641;51.676;5.808;2023-06-26T02:15:04;28.00;53.00
62583;DHT22;48641;51.676;5.808;2023-06-26T02:17:30;27.90;52.90
62583;DHT22;48641;51.676;5.808;2023-06-26T02:19:56;27.90;52.90
62583;DHT22;48641;51.676;5.808;2023-06-26T02:22:22;27.90;52.90
62583;DHT22;48641;51.676;5.808;2023-06-26T02:24:48;27.90;52.90
62583;DHT22;48641;51.676;5.808;2023-06-26T02:27:13;27.90;52.90
62583;DHT22;48641;51.676;5.808;2023-06-26T02:29:40;27.90;53.00
62583;DHT22;48641;51.676;5.808;2023-06-26T02:32:06;27.90;52.90
62583;DHT22;48641;51.676;5.808;2023-06-26T02:34:32;27.90;52.80
62583;DHT22;48641;51.676;5.808;2023-06-26T02:36:58;27.90;52.90
62583;DHT22;48641;51.676;5.808;2023-06-26T02:39:26;27.90;52.90
62583;DHT22;48641;51.676;5.808;2023-06-26T02:41:52;27.90;52.90
62583;DHT22;48641;51.676;5.808;2023-06-26T02:44:18;27.90;52.90
62583;DHT22;48641;51.676;5.808;2023-06-26T02:46:43;27.90;52.90
62583;DHT22;48641;51.676;5.808;2023-06-26T02:49:09;27.90;52.90
62583;DHT22;48641;51.676;5.808;2023-06-26T02:51:35;27.90;52.90
62583;DHT22;48641;51.676;5.808;2023-06-26T02:54:01;27.90;52.80
62583;DHT22;48641;51.676;5.808;2023-06-26T02:56:27;27.90;52.90
62583;DHT22;48641;51.676;5.808;2023-06-26T02:58:57;27.90;52.90
62583;DHT22;48641;51.676;5.808;2023-06-26T03:01:26;27.90;52.90
62583;DHT22;48641;51.676;5.808;2023-06-26T03:03:52;27.90;52.90
62583;DHT22;48641;51.676;5.808;2023-06-26T03:06:18;27.90;52.90
62583;DHT22;48641;51.676;5.808;2023-06-26T03:08:43;27.80;52.90
62583;DHT22;48641;51.676;5.808;2023-06-26T03:11:10;27.80;52.90
62583;DHT22;48641;51.676;5.808;2023-06-26T03:13:38;27.80;52.90
62583;DHT22;48641;51.676;5.808;2023-06-26T03:16:04;27.80;52.90
62583;DHT22;48641;51.676;5.808;2023-06-26T03:18:30;27.80;52.90
62583;DHT22;48641;51.676;5.808;2023-06-26T03:20:56;27.80;52.90
62583;DHT22;48641;51.676;5.808;2023-06-26T03:23:23;27.80;52.90
62583;DHT22;48641;51.676;5.808;2023-06-26T03:25:49;27.80;52.90
62583;DHT22;48641;51.676;5.808;2023-06-26T03:28:15;27.80;52.90
62583;DHT22;48641;51.676;5.808;2023-06-26T03:30:40;27.80;52.80
62583;DHT22;48641;51.676;5.808;2023-06-26T03:33:06;27.80;52.80
62583;DHT22;48641;51.676;5.808;2023-06-26T03:35:32;27.80;52.80
62583;DHT22;48641;51.676;5.808;2023-06-26T03:37:58;27.80;52.80
62583;DHT22;48641;51.676;5.808;2023-06-26T03:40:24;27.80;52.80
62583;DHT22;48641;51.676;5.808;2023-06-26T03:42:49;27.80;52.90
62583;DHT22;48641;51.676;5.808;2023-06-26T03:45:15;27.80;52.90
62583;DHT22;48641;51.676;5.808;2023-06-26T03:47:41;27.80;52.90
62583;DHT22;48641;51.676;5.808;2023-06-26T03:50:07;27.80;52.90
62583;DHT22;48641;51.676;5.808;2023-06-26T03:52:32;27.80;52.90
62583;DHT22;48641;51.676;5.808;2023-06-26T03:54:58;27.80;52.90
62583;DHT22;48641;51.676;5.808;2023-06-26T03:57:24;27.80;52.90
62583;DHT22;48641;51.676;5.808;2023-06-26T03:59:51;27.80;52.90
62583;DHT22;48641;51.676;5.808;2023-06-26T04:02:17;27.80;52.90
62583;DHT22;48641;51.676;5.808;2023-06-26T04:04:44;27.80;52.90
62583;DHT22;48641;51.676;5.808;2023-06-26T04:07:10;27.70;52.80
62583;DHT22;48641;51.676;5.808;2023-06-26T04:09:35;27.80;52.90
62583;DHT22;48641;51.676;5.808;2023-06-26T04:12:02;27.80;52.90
62583;DHT22;48641;51.676;5.808;2023-06-26T04:14:28;27.70;52.80
62583;DHT22;48641;51.676;5.808;2023-06-26T04:16:54;27.70;52.90
62583;DHT22;48641;51.676;5.808;2023-06-26T04:19:20;27.70;52.90
62583;DHT22;48641;51.676;5.808;2023-06-26T04:21:45;27.70;52.90
62583;DHT22;48641;51.676;5.808;2023-06-26T04:24:11;27.70;52.90
62583;DHT22;48641;51.676;5.808;2023-06-26T04:26:37;27.70;52.90
62583;DHT22;48641;51.676;5.808;2023-06-26T04:29:06;27.70;53.00
62583;DHT22;48641;51.676;5.808;2023-06-26T04:31:32;27.70;53.00
62583;DHT22;48641;51.676;5.808;2023-06-26T04:33:58;27.70;53.10
62583;DHT22;48641;51.676;5.808;2023-06-26T04:36:25;27.70;52.90
62583;DHT22;48641;51.676;5.808;2023-06-26T04:38:54;27.70;52.90
62583;DHT22;48641;51.676;5.808;2023-06-26T04:41:24;27.70;52.90
62583;DHT22;48641;51.676;5.808;2023-06-26T04:43:49;27.70;52.90
62583;DHT22;48641;51.676;5.808;2023-06-26T04:46:18;27.60;52.90
62583;DHT22;48641;51.676;5.808;2023-06-26T04:48:44;27.50;53.10
62583;DHT22;48641;51.676;5.808;2023-06-26T04:51:18;27.60;53.20
62583;DHT22;48641;51.676;5.808;2023-06-26T06:03:19;27.40;53.20
62583;DHT22;48641;51.676;5.808;2023-06-26T06:05:44;27.40;53.20
62583;DHT22;48641;51.676;5.808;2023-06-26T06:08:10;27.40;53.20
62583;DHT22;48641;51.676;5.808;2023-06-26T06:10:35;27.40;53.10
62583;DHT22;48641;51.676;5.808;2023-06-26T06:13:01;27.40;53.10
62583;DHT22;48641;51.676;5.808;2023-06-26T06:15:27;27.40;53.10
62583;DHT22;48641;51.676;5.808;2023-06-26T06:17:52;27.40;52.60
62583;DHT22;48641;51.676;5.808;2023-06-26T06:20:18;27.30;52.00
62583;DHT22;48641;51.676;5.808;2023-06-26T06:22:46;27.30;51.80
62583;DHT22;48641;51.676;5.808;2023-06-26T06:25:14;27.30;51.20
62583;DHT22;48641;51.676;5.808;2023-06-26T06:27:42;27.30;51.20
62583;DHT22;48641;51.676;5.808;2023-06-26T06:30:09;27.20;50.80
62583;DHT22;48641;51.676;5.808;2023-06-26T06:32:38;27.20;51.00
62583;DHT22;48641;51.676;5.808;2023-06-26T06:35:04;27.20;50.80
62583;DHT22;48641;51.676;5.808;2023-06-26T06:37:38;27.10;50.90
62583;DHT22;48641;51.676;5.808;2023-06-26T06:40:08;27.10;50.90
62583;DHT22;48641;51.676;5.808;2023-06-26T06:42:34;27.10;50.70
62583;DHT22;48641;51.676;5.808;2023-06-26T06:45:02;27.10;50.60
62583;DHT22;48641;51.676;5.808;2023-06-26T06:47:28;27.00;50.30
62583;DHT22;48641;51.676;5.808;2023-06-26T06:49:53;27.00;50.40
62583;DHT22;48641;51.676;5.808;2023-06-26T06:52:19;27.00;50.60
62583;DHT22;48641;51.676;5.808;2023-06-26T06:54:55;27.00;50.70
62583;DHT22;48641;51.676;5.808;2023-06-26T06:57:24;27.00;50.60
62583;DHT22;48641;51.676;5.808;2023-06-26T06:59:50;26.90;50.80
62583;DHT22;48641;51.676;5.808;2023-06-26T07:02:19;26.80;50.60
62583;DHT22;48641;51.676;5.808;2023-06-26T07:04:45;26.80;50.50
62583;DHT22;48641;51.676;5.808;2023-06-26T07:07:13;26.80;50.70
62583;DHT22;48641;51.676;5.808;2023-06-26T07:09:39;26.90;50.30
62583;DHT22;48641;51.676;5.808;2023-06-26T07:12:05;26.80;50.90
62583;DHT22;48641;51.676;5.808;2023-06-26T07:14:31;26.80;49.60
62583;DHT22;48641;51.676;5.808;2023-06-26T07:16:56;26.80;49.40
62583;DHT22;48641;51.676;5.808;2023-06-26T07:19:22;26.70;49.30
62583;DHT22;48641;51.676;5.808;2023-06-26T07:21:47;26.70;49.40
62583;DHT22;48641;51.676;5.808;2023-06-26T07:24:13;26.70;49.60
62583;DHT22;48641;51.676;5.808;2023-06-26T07:26:44;26.70;49.60
62583;DHT22;48641;51.676;5.808;2023-06-26T07:29:13;26.70;49.80
62583;DHT22;48641;51.676;5.808;2023-06-26T07:31:38;26.70;49.80
62583;DHT22;48641;51.676;5.808;2023-06-26T07:34:04;26.70;49.90
62583;DHT22;48641;51.676;5.808;2023-06-26T07:36:29;26.80;50.10
62583;DHT22;48641;51.676;5.808;2023-06-26T07:38:55;26.80;50.20
62583;DHT22;48641;51.676;5.808;2023-06-26T07:41:21;26.80;50.30
62583;DHT22;48641;51.676;5.808;2023-06-26T07:43:46;26.80;50.20
62583;DHT22;48641;51.676;5.808;2023-06-26T07:46:12;26.80;50.40
62583;DHT22;48641;51.676;5.808;2023-06-26T07:48:37;26.80;50.40
62583;DHT22;48641;51.676;5.808;2023-06-26T07:51:03;26.80;50.50
62583;DHT22;48641;51.676;5.808;2023-06-26T07:53:29;26.80;50.60
62583;DHT22;48641;51.676;5.808;2023-06-26T07:55:54;26.80;50.60
62583;DHT22;48641;51.676;5.808;2023-06-26T07:58:20;26.80;50.50
62583;DHT22;48641;51.676;5.808;2023-06-26T08:00:45;26.90;50.60
62583;DHT22;48641;51.676;5.808;2023-06-26T08:03:14;26.80;50.60
62583;DHT22;48641;51.676;5.808;2023-06-26T08:05:40;26.90;50.70
62583;DHT22;48641;51.676;5.808;2023-06-26T08:08:05;26.90;50.70
62583;DHT22;48641;51.676;5.808;2023-06-26T08:10:32;26.90;50.80
62583;DHT22;48641;51.676;5.808;2023-06-26T08:12:57;26.90;50.80
62583;DHT22;48641;51.676;5.808;2023-06-26T08:15:23;26.90;50.80
62583;DHT22;48641;51.676;5.808;2023-06-26T08:17:49;26.90;50.80
62583;DHT22;48641;51.676;5.808;2023-06-26T08:20:16;26.90;50.80
62583;DHT22;48641;51.676;5.808;2023-06-26T08:22:41;26.90;50.90
62583;DHT22;48641;51.676;5.808;2023-06-26T08:25:07;26.90;50.90
62583;DHT22;48641;51.676;5.808;2023-06-26T08:27:33;26.90;50.90
62583;DHT22;48641;51.676;5.808;2023-06-26T08:29:58;26.90;50.90
62583;DHT22;48641;51.676;5.808;2023-06-26T08:32:24;26.90;50.90
62583;DHT22;48641;51.676;5.808;2023-06-26T08:34:50;26.90;50.90
62583;DHT22;48641;51.676;5.808;2023-06-26T08:37:16;26.90;51.00
62583;DHT22;48641;51.676;5.808;2023-06-26T08:39:41;26.90;51.00
62583;DHT22;48641;51.676;5.808;2023-06-26T08:42:07;26.90;51.00
62583;DHT22;48641;51.676;5.808;2023-06-26T08:44:33;26.90;51.00
62583;DHT22;48641;51.676;5.808;2023-06-26T08:47:01;26.90;51.00
62583;DHT22;48641;51.676;5.808;2023-06-26T08:49:42;26.90;51.00
62583;DHT22;48641;51.676;5.808;2023-06-26T08:52:31;26.90;51.00
62583;DHT22;48641;51.676;5.808;2023-06-26T08:55:02;27.00;51.00
62583;DHT22;48641;51.676;5.808;2023-06-26T08:57:30;26.90;51.10
62583;DHT22;48641;51.676;5.808;2023-06-26T08:59:58;26.90;51.10
62583;DHT22;48641;51.676;5.808;2023-06-26T09:02:45;26.90;51.10
62583;DHT22;48641;51.676;5.808;2023-06-26T09:05:41;26.90;51.00
62583;DHT22;48641;51.676;5.808;2023-06-26T09:08:34;26.90;51.10
62583;DHT22;48641;51.676;5.808;2023-06-26T09:11:00;26.90;51.00
62583;DHT22;48641;51.676;5.808;2023-06-26T09:13:25;26.80;50.90
62583;DHT22;48641;51.676;5.808;2023-06-26T09:15:54;26.80;51.00
62583;DHT22;48641;51.676;5.808;2023-06-26T09:18:21;26.90;51.10
62583;DHT22;48641;51.676;5.808;2023-06-26T09:20:47;26.90;51.10
62583;DHT22;48641;51.676;5.808;2023-06-26T09:23:13;26.90;51.20
62583;DHT22;48641;51.676;5.808;2023-06-26T09:25:40;26.90;51.10
62583;DHT22;48641;51.676;5.808;2023-06-26T09:28:08;26.90;50.90
62583;DHT22;48641;51.676;5.808;2023-06-26T09:30:35;26.90;50.70
62583;DHT22;48641;51.676;5.808;2023-06-26T09:33:18;26.90;50.80
62583;DHT22;48641;51.676;5.808;2023-06-26T09:35:45;26.90;50.80
62583;DHT22;48641;51.676;5.808;2023-06-26T09:38:12;26.90;51.70
62583;DHT22;48641;51.676;5.808;2023-06-26T09:40:39;26.90;50.70
62583;DHT22;48641;51.676;5.808;2023-06-26T09:43:06;26.90;50.70
62583;DHT22;48641;51.676;5.808;2023-06-26T09:45:35;26.90;50.50
62583;DHT22;48641;51.676;5.808;2023-06-26T09:48:04;26.90;50.20
62583;DHT22;48641;51.676;5.808;2023-06-26T09:50:32;26.90;50.10
62583;DHT22;48641;51.676;5.808;2023-06-26T09:53:14;26.90;50.20
62583;DHT22;48641;51.676;5.808;2023-06-26T09:55:41;26.90;49.90
62583;DHT22;48641;51.676;5.808;2023-06-26T09:58:10;26.90;50.20
62583;DHT22;48641;51.676;5.808;2023-06-26T10:00:40;26.90;50.10
62583;DHT22;48641;51.676;5.808;2023-06-26T10:03:06;26.90;50.20
62583;DHT22;48641;51.676;5.808;2023-06-26T10:05:32;26.90;50.10
62583;DHT22;48641;51.676;5.808;2023-06-26T10:07:58;26.90;50.20
62583;DHT22;48641;51.676;5.808;2023-06-26T10:10:27;26.90;50.20
62583;DHT22;48641;51.676;5.808;2023-06-26T10:13:03;26.90;49.80
62583;DHT22;48641;51.676;5.808;2023-06-26T10:15:30;26.90;49.70
62583;DHT22;48641;51.676;5.808;2023-06-26T10:17:57;26.90;49.50
62583;DHT22;48641;51.676;5.808;2023-06-26T10:20:26;26.80;48.70
62583;DHT22;48641;51.676;5.808;2023-06-26T10:22:54;26.80;48.70
62583;DHT22;48641;51.676;5.808;2023-06-26T10:25:21;26.80;48.60
62583;DHT22;48641;51.676;5.808;2023-06-26T10:27:53;26.80;48.80
62583;DHT22;48641;51.676;5.808;2023-06-26T10:30:24;26.90;49.40
62583;DHT22;48641;51.676;5.808;2023-06-26T10:32:52;26.90;49.40
62583;DHT22;48641;51.676;5.808;2023-06-26T10:35:18;26.90;49.70
62583;DHT22;48641;51.676;5.808;2023-06-26T10:37:49;26.90;49.70
62583;DHT22;48641;51.676;5.808;2023-06-26T10:40:21;26.90;49.90
62583;DHT22;48641;51.676;5.808;2023-06-26T10:42:47;26.90;50.00
62583;DHT22;48641;51.676;5.808;2023-06-26T10:45:17;26.90;50.00
62583;DHT22;48641;51.676;5.808;2023-06-26T10:47:47;26.90;50.00
62583;DHT22;48641;51.676;5.808;2023-06-26T10:55:50;27.00;50.20
62583;DHT22;48641;51.676;5.808;2023-06-26T11:01:14;27.00;50.30
62583;DHT22;48641;51.676;5.808;2023-06-26T11:03:42;27.00;50.20
62583;DHT22;48641;51.676;5.808;2023-06-26T11:06:09;27.00;50.40
62583;DHT22;48641;51.676;5.808;2023-06-26T11:08:45;27.00;50.50
62583;DHT22;48641;51.676;5.808;2023-06-26T11:11:12;26.90;50.60
62583;DHT22;48641;51.676;5.808;2023-06-26T11:13:42;26.90;50.80
62583;DHT22;48641;51.676;5.808;2023-06-26T11:16:08;26.90;50.80
62583;DHT22;48641;51.676;5.808;2023-06-26T11:18:33;26.90;50.70
62583;DHT22;48641;51.676;5.808;2023-06-26T11:23:33;27.00;50.80
62583;DHT22;48641;51.676;5.808;2023-06-26T11:26:21;27.00;51.90
62583;DHT22;48641;51.676;5.808;2023-06-26T11:31:30;27.00;50.80
62583;DHT22;48641;51.676;5.808;2023-06-26T11:33:56;27.10;50.80
62583;DHT22;48641;51.676;5.808;2023-06-26T11:36:28;27.10;50.90
62583;DHT22;48641;51.676;5.808;2023-06-26T11:38:58;27.10;50.90
62583;DHT22;48641;51.676;5.808;2023-06-26T11:41:28;27.10;50.90
62583;DHT22;48641;51.676;5.808;2023-06-26T11:43:54;27.10;51.00
62583;DHT22;48641;51.676;5.808;2023-06-26T11:46:22;27.10;50.90
62583;DHT22;48641;51.676;5.808;2023-06-26T11:48:48;27.10;51.00
62583;DHT22;48641;51.676;5.808;2023-06-26T11:51:15;27.10;51.00
62583;DHT22;48641;51.676;5.808;2023-06-26T11:53:42;27.10;51.00
62583;DHT22;48641;51.676;5.808;2023-06-26T11:56:10;27.10;50.90
62583;DHT22;48641;51.676;5.808;2023-06-26T11:58:36;27.20;51.00
62583;DHT22;48641;51.676;5.808;2023-06-26T12:01:02;27.20;51.00
62583;DHT22;48641;51.676;5.808;2023-06-26T12:03:29;27.20;51.00
62583;DHT22;48641;51.676;5.808;2023-06-26T12:05:55;27.20;51.00
62583;DHT22;48641;51.676;5.808;2023-06-26T12:08:21;27.20;50.90
62583;DHT22;48641;51.676;5.808;2023-06-26T12:10:47;27.20;50.80
62583;DHT22;48641;51.676;5.808;2023-06-26T12:13:13;27.20;51.00
62583;DHT22;48641;51.676;5.808;2023-06-26T12:15:39;27.20;50.90
62583;DHT22;48641;51.676;5.808;2023-06-26T12:18:09;27.20;51.00
62583;DHT22;48641;51.676;5.808;2023-06-26T12:20:39;27.20;50.80
62583;DHT22;48641;51.676;5.808;2023-06-26T12:23:12;27.20;50.90
62583;DHT22;48641;51.676;5.808;2023-06-26T12:25:38;27.30;51.00
62583;DHT22;48641;51.676;5.808;2023-06-26T12:28:03;27.30;51.00
62583;DHT22;48641;51.676;5.808;2023-06-26T12:30:40;27.30;51.00
62583;DHT22;48641;51.676;5.808;2023-06-26T12:33:13;27.30;51.00
62583;DHT22;48641;51.676;5.808;2023-06-26T12:35:39;27.30;51.00
62583;DHT22;48641;51.676;5.808;2023-06-26T12:38:07;27.30;50.90
62583;DHT22;48641;51.676;5.808;2023-06-26T12:40:44;27.30;50.70
62583;DHT22;48641;51.676;5.808;2023-06-26T12:43:23;27.30;50.50
62583;DHT22;48641;51.676;5.808;2023-06-26T12:45:53;27.30;50.50
62583;DHT22;48641;51.676;5.808;2023-06-26T12:48:19;27.30;50.70
62583;DHT22;48641;51.676;5.808;2023-06-26T12:50:45;27.30;50.60
62583;DHT22;48641;51.676;5.808;2023-06-26T12:53:11;27.30;50.70
62583;DHT22;48641;51.676;5.808;2023-06-26T12:55:37;27.30;50.80
62583;DHT22;48641;51.676;5.808;2023-06-26T12:58:02;27.30;50.60
62583;DHT22;48641;51.676;5.808;2023-06-26T13:00:28;27.30;50.60
62583;DHT22;48641;51.676;5.808;2023-06-26T13:02:54;27.30;50.50
62583;DHT22;48641;51.676;5.808;2023-06-26T13:05:19;27.30;50.50
62583;DHT22;48641;51.676;5.808;2023-06-26T13:07:45;27.30;50.50
62583;DHT22;48641;51.676;5.808;2023-06-26T13:10:11;27.30;50.50
62583;DHT22;48641;51.676;5.808;2023-06-26T13:12:36;27.30;50.60
62583;DHT22;48641;51.676;5.808;2023-06-26T13:15:02;27.40;50.70
62583;DHT22;48641;51.676;5.808;2023-06-26T13:17:27;27.30;50.80
62583;DHT22;48641;51.676;5.808;2023-06-26T13:19:53;27.30;50.80
62583;DHT22;48641;51.676;5.808;2023-06-26T13:22:19;27.30;50.80
62583;DHT22;48641;51.676;5.808;2023-06-26T13:24:44;27.30;50.80
62583;DHT22;48641;51.676;5.808;2023-06-26T13:27:11;27.30;50.80
62583;DHT22;48641;51.676;5.808;2023-06-26T13:29:37;27.40;51.00
62583;DHT22;48641;51.676;5.808;2023-06-26T13:32:02;27.40;50.90
62583;DHT22;48641;51.676;5.808;2023-06-26T13:34:29;27.40;50.90
62583;DHT22;48641;51.676;5.808;2023-06-26T13:36:55;27.40;50.90
62583;DHT22;48641;51.676;5.808;2023-06-26T13:39:21;27.40;51.00
62583;DHT22;48641;51.676;5.808;2023-06-26T13:41:47;27.40;50.80
62583;DHT22;48641;51.676;5.808;2023-06-26T13:44:12;27.40;50.90
62583;DHT22;48641;51.676;5.808;2023-06-26T13:46:38;27.40;51.00
62583;DHT22;48641;51.676;5.808;2023-06-26T13:49:03;27.40;50.90
62583;DHT22;48641;51.676;5.808;2023-06-26T13:51:29;27.40;50.90
62583;DHT22;48641;51.676;5.808;2023-06-26T13:53:55;27.40;50.90
62583;DHT22;48641;51.676;5.808;2023-06-26T13:56:25;27.40;50.90
62583;DHT22;48641;51.676;5.808;2023-06-26T13:58:51;27.40;50.90
62583;DHT22;48641;51.676;5.808;2023-06-26T14:01:16;27.40;50.90
62583;DHT22;48641;51.676;5.808;2023-06-26T14:03:42;27.50;51.00
62583;DHT22;48641;51.676;5.808;2023-06-26T14:06:07;27.40;50.90
62583;DHT22;48641;51.676;5.808;2023-06-26T14:08:33;27.40;50.90
62583;DHT22;48641;51.676;5.808;2023-06-26T14:10:59;27.40;50.90
62583;DHT22;48641;51.676;5.808;2023-06-26T14:13:25;27.40;50.90
62583;DHT22;48641;51.676;5.808;2023-06-26T14:15:50;27.50;51.10
62583;DHT22;48641;51.676;5.808;2023-06-26T14:18:19;27.40;51.00
62583;DHT22;48641;51.676;5.808;2023-06-26T14:20:46;27.40;51.00
62583;DHT22;48641;51.676;5.808;2023-06-26T14:23:12;27.40;51.00
62583;DHT22;48641;51.676;5.808;2023-06-26T14:25:38;27.50;51.10
62583;DHT22;48641;51.676;5.808;2023-06-26T14:28:03;27.40;51.00
62583;DHT22;48641;51.676;5.808;2023-06-26T14:30:29;27.50;51.10
62583;DHT22;48641;51.676;5.808;2023-06-26T14:32:54;27.50;51.10
62583;DHT22;48641;51.676;5.808;2023-06-26T14:35:20;27.50;51.00
62583;DHT22;48641;51.676;5.808;2023-06-26T14:37:47;27.50;51.10
62583;DHT22;48641;51.676;5.808;2023-06-26T14:40:13;27.50;51.10
62583;DHT22;48641;51.676;5.808;2023-06-26T14:42:39;27.50;51.10
62583;DHT22;48641;51.676;5.808;2023-06-26T14:45:05;27.50;51.10
62583;DHT22;48641;51.676;5.808;2023-06-26T14:47:30;27.50;51.20
62583;DHT22;48641;51.676;5.808;2023-06-26T14:49:56;27.50;51.20
62583;DHT22;48641;51.676;5.808;2023-06-26T14:52:21;27.50;51.30
62583;DHT22;48641;51.676;5.808;2023-06-26T14:54:47;27.50;51.30
62583;DHT22;48641;51.676;5.808;2023-06-26T14:57:13;27.50;51.30
62583;DHT22;48641;51.676;5.808;2023-06-26T14:59:38;27.50;51.30
62583;DHT22;48641;51.676;5.808;2023-06-26T15:02:04;27.50;51.10
62583;DHT22;48641;51.676;5.808;2023-06-26T15:04:31;27.50;51.10
62583;DHT22;48641;51.676;5.808;2023-06-26T15:06:57;27.50;51.10
62583;DHT22;48641;51.676;5.808;2023-06-26T15:09:23;27.50;51.20
62583;DHT22;48641;51.676;5.808;2023-06-26T15:11:49;27.50;51.10
62583;DHT22;48641;51.676;5.808;2023-06-26T15:14:14;27.50;51.10
62583;DHT22;48641;51.676;5.808;2023-06-26T15:16:40;27.50;50.90
62583;DHT22;48641;51.676;5.808;2023-06-26T15:19:05;27.50;51.40
62583;DHT22;48641;51.676;5.808;2023-06-26T15:21:31;27.50;48.40
62583;DHT22;48641;51.676;5.808;2023-06-26T15:23:57;27.40;46.10
62583;DHT22;48641;51.676;5.808;2023-06-26T15:26:22;27.40;47.00
62583;DHT22;48641;51.676;5.808;2023-06-26T15:28:48;27.30;46.40
62583;DHT22;48641;51.676;5.808;2023-06-26T15:31:13;27.30;46.60
62583;DHT22;48641;51.676;5.808;2023-06-26T15:33:39;27.30;45.10
62583;DHT22;48641;51.676;5.808;2023-06-26T15:36:05;27.20;44.80
62583;DHT22;48641;51.676;5.808;2023-06-26T15:38:31;27.20;44.90
62583;DHT22;48641;51.676;5.808;2023-06-26T15:40:56;27.20;43.90
62583;DHT22;48641;51.676;5.808;2023-06-26T15:43:22;27.10;43.00
62583;DHT22;48641;51.676;5.808;2023-06-26T15:45:48;27.00;42.10
62583;DHT22;48641;51.676;5.808;2023-06-26T15:48:13;27.00;41.90
62583;DHT22;48641;51.676;5.808;2023-06-26T15:50:39;26.90;41.50
62583;DHT22;48641;51.676;5.808;2023-06-26T15:53:05;26.90;42.10
62583;DHT22;48641;51.676;5.808;2023-06-26T15:55:31;26.90;42.40
62583;DHT22;48641;51.676;5.808;2023-06-26T15:57:56;26.90;42.90
62583;DHT22;48641;51.676;5.808;2023-06-26T16:00:22;26.90;42.80
62583;DHT22;48641;51.676;5.808;2023-06-26T16:02:48;26.90;43.10
62583;DHT22;48641;51.676;5.808;2023-06-26T16:05:14;26.90;43.30
62583;DHT22;48641;51.676;5.808;2023-06-26T16:07:40;26.90;43.60
62583;DHT22;48641;51.676;5.808;2023-06-26T16:10:06;26.90;44.20
62583;DHT22;48641;51.676;5.808;2023-06-26T16:12:32;26.90;44.40
62583;DHT22;48641;51.676;5.808;2023-06-26T16:14:58;27.00;44.40
62583;DHT22;48641;51.676;5.808;2023-06-26T16:17:24;27.00;44.90
62583;DHT22;48641;51.676;5.808;2023-06-26T16:19:49;26.90;45.00
62583;DHT22;48641;51.676;5.808;2023-06-26T16:22:15;27.00;45.30
62583;DHT22;48641;51.676;5.808;2023-06-26T16:24:41;27.00;45.60
62583;DHT22;48641;51.676;5.808;2023-06-26T16:27:06;27.00;45.60
62583;DHT22;48641;51.676;5.808;2023-06-26T16:29:32;27.00;45.70
62583;DHT22;48641;51.676;5.808;2023-06-26T16:32:00;27.00;45.50
62583;DHT22;48641;51.676;5.808;2023-06-26T16:34:25;27.00;45.40
62583;DHT22;48641;51.676;5.808;2023-06-26T16:36:54;27.00;45.30
62583;DHT22;48641;51.676;5.808;2023-06-26T16:39:20;27.00;45.60
62583;DHT22;48641;51.676;5.808;2023-06-26T16:41:49;27.00;46.10
62583;DHT22;48641;51.676;5.808;2023-06-26T16:44:22;27.00;45.60
62583;DHT22;48641;51.676;5.808;2023-06-26T16:46:48;27.00;46.30
62583;DHT22;48641;51.676;5.808;2023-06-26T16:49:14;27.00;46.20
62583;DHT22;48641;51.676;5.808;2023-06-26T16:51:40;27.00;46.00
62583;DHT22;48641;51.676;5.808;2023-06-26T16:54:06;27.00;45.80
62583;DHT22;48641;51.676;5.808;2023-06-26T16:56:31;27.00;45.90